Time;durP1;ratioP1;P1;durP2;ratioP2;P2;SDS_P1;SDS_P2;PMS_P1;PMS_P2;Temp;Humidity;BMP_temperature;BMP_pressure;BME280_temperature;BME280_humidity;BME280_pressure;Samples;Min_cycle;Max_cycle;Signal;HPM_P1;HPM_P2
2021/10/08 00:01:28;;;;;;;0.77;0.77;;;13.90;99.90;;;;;;4397243;32;20098;-70
2021/10/08 00:03:54;;;;;;;0.90;0.75;;;13.80;99.90;;;;;;4399397;32;20148;-70
2021/10/08 00:06:20;;;;;;;0.95;0.95;;;13.80;99.90;;;;;;4401879;32;20121;-70
2021/10/08 00:08:45;;;;;;;0.80;0.80;;;13.70;99.90;;;;;;4399640;32;20085;-70
2021/10/08 00:11:11;;;;;;;1.40;0.88;;;13.70;99.90;;;;;;4397483;32;20085;-70
2021/10/08 00:13:38;;;;;;;0.45;0.45;;;13.60;99.90;;;;;;4400901;32;20482;-71
2021/10/08 00:16:05;;;;;;;0.90;0.80;;;13.50;99.90;;;;;;4401258;32;20811;-70
2021/10/08 00:18:32;;;;;;;2.25;0.73;;;13.50;99.90;;;;;;4401970;32;20071;-70
2021/10/08 00:20:58;;;;;;;1.55;0.77;;;13.50;99.90;;;;;;4400586;32;20194;-70
2021/10/08 00:23:23;;;;;;;1.12;0.90;;;13.40;99.90;;;;;;4402599;32;20506;-70
2021/10/08 00:25:49;;;;;;;1.70;0.98;;;13.40;99.90;;;;;;4404608;32;20560;-70
2021/10/08 00:28:14;;;;;;;3.72;1.37;;;13.40;99.90;;;;;;4402793;32;20086;-70
2021/10/08 00:30:40;;;;;;;0.93;0.82;;;13.30;99.90;;;;;;4402275;32;20469;-70
2021/10/08 00:33:05;;;;;;;1.25;0.80;;;13.30;99.90;;;;;;4402040;32;20082;-70
2021/10/08 00:35:31;;;;;;;1.98;0.95;;;13.20;99.90;;;;;;4402235;32;20089;-70
2021/10/08 00:37:56;;;;;;;8.70;1.27;;;13.20;99.90;;;;;;4402506;32;20530;-70
2021/10/08 00:40:23;;;;;;;1.67;0.90;;;13.20;99.90;;;;;;4400961;32;20531;-70
2021/10/08 00:42:49;;;;;;;1.02;0.95;;;13.00;99.90;;;;;;4398950;32;20065;-70
2021/10/08 00:45:15;;;;;;;1.27;1.17;;;13.00;99.90;;;;;;4403283;32;20630;-70
2021/10/08 00:47:41;;;;;;;2.30;1.00;;;12.90;99.90;;;;;;4401775;32;20803;-70
2021/10/08 00:50:07;;;;;;;1.23;1.00;;;12.90;99.90;;;;;;4400556;32;20106;-70
2021/10/08 00:52:33;;;;;;;1.55;0.80;;;12.90;99.90;;;;;;4398833;32;20085;-70
2021/10/08 00:54:59;;;;;;;1.20;0.98;;;12.90;99.90;;;;;;4401571;32;20075;-70
2021/10/08 00:57:24;;;;;;;1.75;1.02;;;12.90;99.90;;;;;;4401366;32;20070;-70
2021/10/08 00:59:50;;;;;;;3.40;1.77;;;12.80;99.90;;;;;;4400801;32;20078;-70
2021/10/08 01:02:17;;;;;;;1.17;1.08;;;12.80;99.90;;;;;;4401518;32;20455;-70
2021/10/08 01:04:45;;;;;;;1.23;0.85;;;12.80;99.90;;;;;;4401633;32;20065;-70
2021/10/08 01:07:11;;;;;;;1.08;1.05;;;12.70;99.90;;;;;;4401539;32;20070;-70
2021/10/08 01:09:36;;;;;;;0.68;0.68;;;12.60;99.90;;;;;;4399554;32;20102;-70
2021/10/08 01:12:02;;;;;;;1.95;0.73;;;12.50;99.90;;;;;;4400174;32;20089;-70
2021/10/08 01:14:27;;;;;;;2.20;1.10;;;12.40;99.90;;;;;;4402030;32;20082;-70
2021/10/08 01:16:53;;;;;;;1.30;0.70;;;12.50;99.90;;;;;;4399912;32;20163;-70
2021/10/08 01:19:18;;;;;;;11.98;1.42;;;12.50;99.90;;;;;;4402117;32;20094;-70
2021/10/08 01:21:45;;;;;;;1.10;0.93;;;12.40;99.90;;;;;;4400812;32;20066;-70
2021/10/08 01:24:10;;;;;;;2.37;1.00;;;12.30;99.90;;;;;;4402734;32;20449;-70
2021/10/08 01:26:36;;;;;;;1.17;0.77;;;12.30;99.90;;;;;;4399271;32;20089;-70
2021/10/08 01:29:05;;;;;;;1.30;0.73;;;12.40;99.90;;;;;;4400929;32;20539;-71
2021/10/08 01:31:31;;;;;;;3.20;0.80;;;12.30;99.90;;;;;;4401703;32;20069;-71
2021/10/08 01:33:56;;;;;;;1.05;0.90;;;12.20;99.90;;;;;;4399174;32;20070;-70
2021/10/08 01:36:22;;;;;;;2.35;1.05;;;12.20;99.90;;;;;;4400133;32;20185;-70
2021/10/08 01:38:47;;;;;;;3.83;0.77;;;12.10;99.90;;;;;;4403771;32;20070;-70
2021/10/08 01:41:13;;;;;;;0.93;0.90;;;12.10;99.90;;;;;;4402259;32;20579;-70
2021/10/08 01:43:38;;;;;;;0.60;0.60;;;12.00;99.90;;;;;;4404549;32;20086;-70
2021/10/08 01:46:04;;;;;;;0.70;0.70;;;11.90;99.90;;;;;;4400372;32;20082;-70
2021/10/08 01:48:29;;;;;;;1.15;0.73;;;11.90;99.90;;;;;;4401536;32;20558;-71
2021/10/08 01:50:55;;;;;;;1.35;0.75;;;11.90;99.90;;;;;;4404841;32;20066;-71
2021/10/08 01:53:21;;;;;;;1.42;0.55;;;11.90;99.90;;;;;;4402820;32;20546;-71
2021/10/08 01:55:47;;;;;;;1.45;0.95;;;11.90;99.90;;;;;;4401749;32;20066;-70
2021/10/08 01:58:12;;;;;;;0.75;0.60;;;11.90;99.90;;;;;;4401877;32;21224;-70
2021/10/08 02:00:46;;;;;;;0.82;0.82;;;11.90;99.90;;;;;;4403024;32;20397;-73
2021/10/08 02:03:11;;;;;;;3.97;0.80;;;11.90;99.90;;;;;;4402540;32;20465;-71
2021/10/08 02:05:40;;;;;;;6.20;1.35;;;11.90;99.90;;;;;;4398401;32;20116;-70
2021/10/08 02:08:21;;;;;;;1.55;1.27;;;11.90;99.90;;;;;;4402005;32;20559;-70
2021/10/08 02:10:47;;;;;;;0.80;0.80;;;11.90;99.90;;;;;;4400488;32;20117;-71
2021/10/08 02:13:12;;;;;;;1.85;1.00;;;11.90;99.90;;;;;;4407404;32;20089;-71
2021/10/08 02:15:45;;;;;;;0.75;0.75;;;11.90;99.90;;;;;;4398424;32;20098;-71
2021/10/08 02:18:32;;;;;;;5.15;2.03;;;11.90;99.90;;;;;;4401572;32;20090;-73
2021/10/08 02:21:07;;;;;;;2.58;0.77;;;11.80;99.90;;;;;;4402230;32;20061;-71
2021/10/08 02:23:33;;;;;;;2.58;1.00;;;11.80;99.90;;;;;;4403300;32;20137;-70
2021/10/08 02:25:58;;;;;;;1.40;0.70;;;11.80;99.90;;;;;;4402763;32;20065;-70
2021/10/08 02:28:24;;;;;;;3.20;0.88;;;11.80;99.90;;;;;;4400563;32;20074;-70
2021/10/08 02:30:50;;;;;;;7.28;1.42;;;11.80;99.90;;;;;;4402810;32;20535;-70
2021/10/08 02:33:16;;;;;;;2.17;1.58;;;11.80;99.90;;;;;;4402196;32;20094;-71
2021/10/08 02:36:02;;;;;;;1.25;1.15;;;11.80;99.90;;;;;;4402130;32;20078;-70
2021/10/08 02:38:28;;;;;;;2.65;1.08;;;11.80;99.90;;;;;;4399415;32;20610;-70
2021/10/08 02:40:55;;;;;;;0.75;0.60;;;11.80;99.90;;;;;;4400118;32;20078;-70
2021/10/08 02:46:07;;;;;;;1.65;1.10;;;11.80;99.90;;;;;;4391995;32;20105;-70
2021/10/08 02:48:35;;;;;;;2.60;1.37;;;11.70;99.90;;;;;;4400986;32;20500;-71
2021/10/08 02:51:02;;;;;;;0.77;0.75;;;11.90;99.90;;;;;;4400841;32;20144;-70
2021/10/08 02:53:27;;;;;;;0.40;0.40;;;11.90;99.90;;;;;;4403413;32;20086;-71
2021/10/08 02:55:53;;;;;;;1.75;1.20;;;11.90;99.90;;;;;;4400448;32;21270;-71
2021/10/08 02:58:19;;;;;;;0.93;0.70;;;11.80;99.90;;;;;;4401471;32;20505;-70
2021/10/08 03:00:44;;;;;;;1.95;1.33;;;11.80;99.90;;;;;;4405582;32;20117;-71
2021/10/08 03:03:10;;;;;;;2.55;1.50;;;11.70;99.90;;;;;;4403166;32;20066;-73
2021/10/08 03:05:35;;;;;;;0.90;0.90;;;11.70;99.90;;;;;;4403574;32;20061;-71
2021/10/08 03:08:01;;;;;;;0.77;0.77;;;11.70;99.90;;;;;;4401970;32;20148;-70
2021/10/08 03:10:27;;;;;;;1.02;0.95;;;11.70;99.90;;;;;;4401937;32;20066;-70
2021/10/08 03:12:52;;;;;;;3.53;1.02;;;11.70;99.90;;;;;;4407288;32;20086;-70
2021/10/08 03:15:18;;;;;;;0.65;0.65;;;11.70;99.90;;;;;;4401180;32;20066;-71
2021/10/08 03:17:44;;;;;;;0.90;0.90;;;11.70;99.90;;;;;;4400642;32;20559;-70
2021/10/08 03:20:13;;;;;;;1.12;1.00;;;11.70;99.90;;;;;;4403548;32;20121;-71
2021/10/08 03:22:39;;;;;;;1.10;0.82;;;11.70;99.90;;;;;;4403423;32;20110;-71
2021/10/08 03:25:08;;;;;;;1.27;1.17;;;11.70;99.90;;;;;;4400795;32;20078;-70
2021/10/08 03:27:35;;;;;;;2.05;1.15;;;11.70;99.90;;;;;;4402031;32;20511;-70
2021/10/08 03:30:00;;;;;;;3.87;1.23;;;11.60;99.90;;;;;;4399998;32;20061;-69
2021/10/08 03:32:26;;;;;;;3.35;1.45;;;11.70;99.90;;;;;;4402638;32;20114;-71
2021/10/08 03:34:52;;;;;;;0.98;0.98;;;11.80;99.90;;;;;;4399670;32;20097;-70
2021/10/08 03:37:21;;;;;;;1.45;0.93;;;11.80;99.90;;;;;;4398842;32;20117;-70
2021/10/08 03:39:48;;;;;;;1.20;1.10;;;11.80;99.90;;;;;;4400608;32;20093;-70
2021/10/08 03:42:17;;;;;;;0.98;0.90;;;11.70;99.90;;;;;;4402314;32;20081;-70
2021/10/08 03:44:46;;;;;;;5.00;1.75;;;11.70;99.90;;;;;;4400718;32;20091;-69
2021/10/08 03:47:17;;;;;;;3.50;1.30;;;11.70;99.90;;;;;;4401720;32;20082;-70
2021/10/08 03:49:43;;;;;;;2.85;1.77;;;11.70;99.90;;;;;;4401804;32;20141;-70
2021/10/08 03:52:09;;;;;;;2.25;1.30;;;11.70;99.90;;;;;;4401334;32;20087;-70
2021/10/08 03:54:35;;;;;;;2.25;1.50;;;11.70;99.90;;;;;;4402893;32;20436;-70
2021/10/08 03:57:01;;;;;;;7.90;1.37;;;11.70;99.90;;;;;;4400317;32;20117;-71
2021/10/08 03:59:26;;;;;;;5.40;2.55;;;11.70;99.90;;;;;;4401994;32;20069;-70
2021/10/08 04:01:52;;;;;;;7.15;1.73;;;11.70;99.90;;;;;;4400042;32;20077;-72
2021/10/08 04:04:17;;;;;;;2.90;1.52;;;11.70;99.90;;;;;;4400266;32;20094;-72
2021/10/08 04:06:43;;;;;;;7.85;2.28;;;11.70;99.90;;;;;;4401525;32;20083;-71
2021/10/08 04:09:09;;;;;;;3.28;1.60;;;11.70;99.90;;;;;;4402851;32;20539;-77
2021/10/08 04:11:35;;;;;;;0.68;0.68;;;11.70;99.90;;;;;;4401703;32;20074;-70
2021/10/08 04:14:03;;;;;;;5.93;2.67;;;11.80;99.90;;;;;;4404816;32;20405;-70
2021/10/08 04:16:28;;;;;;;1.73;1.12;;;11.80;99.90;;;;;;4404577;32;20127;-71
2021/10/08 04:18:54;;;;;;;18.02;1.55;;;11.80;99.90;;;;;;4404178;32;20425;-69
2021/10/08 04:24:50;;;;;;;4.57;1.80;;;11.80;99.90;;;;;;4404506;32;20114;-71
2021/10/08 04:27:17;;;;;;;1.40;1.23;;;11.70;99.90;;;;;;4401740;32;20569;-70
2021/10/08 04:29:55;;;;;;;2.72;1.75;;;11.80;99.90;;;;;;4401979;32;20073;-71
2021/10/08 04:32:27;;;;;;;3.05;1.65;;;11.90;99.90;;;;;;4400807;32;20074;-72
2021/10/08 04:34:53;;;;;;;3.10;1.27;;;11.80;99.90;;;;;;4399525;32;20531;-70
2021/10/08 04:37:24;;;;;;;3.58;1.62;;;11.80;99.90;;;;;;4400211;32;20087;-69
2021/10/08 04:39:49;;;;;;;3.97;1.77;;;11.70;99.90;;;;;;4401865;32;20089;-71
2021/10/08 04:42:15;;;;;;;5.97;1.87;;;11.70;99.90;;;;;;4403093;32;20459;-72
2021/10/08 04:44:41;;;;;;;3.87;1.48;;;11.80;99.90;;;;;;4401935;32;20093;-71
2021/10/08 04:47:06;;;;;;;1.42;1.30;;;11.80;99.90;;;;;;4402215;32;20534;-70
2021/10/08 04:49:32;;;;;;;3.47;1.75;;;11.60;99.90;;;;;;4402574;32;20405;-70
2021/10/08 04:51:58;;;;;;;2.12;1.27;;;11.60;99.90;;;;;;4401124;32;20082;-69
2021/10/08 04:54:23;;;;;;;1.73;1.10;;;11.60;99.90;;;;;;4401525;32;20523;-71
2021/10/08 04:56:52;;;;;;;2.62;1.15;;;11.70;99.90;;;;;;4402710;32;20109;-71
2021/10/08 04:59:30;;;;;;;7.90;1.60;;;11.70;99.90;;;;;;4400589;32;20129;-71
2021/10/08 05:01:56;;;;;;;2.75;1.65;;;11.70;99.90;;;;;;4397644;32;20081;-71
2021/10/08 05:04:23;;;;;;;1.80;1.58;;;11.70;99.90;;;;;;4401094;32;20123;-71
2021/10/08 05:06:48;;;;;;;9.70;1.73;;;11.70;99.90;;;;;;4403193;32;20077;-71
2021/10/08 05:09:14;;;;;;;3.95;1.50;;;11.60;99.90;;;;;;4402081;32;20136;-70
2021/10/08 05:11:40;;;;;;;1.10;0.85;;;11.70;99.90;;;;;;4399905;32;20088;-68
2021/10/08 05:14:05;;;;;;;1.67;0.98;;;11.60;99.90;;;;;;4399913;32;20090;-70
2021/10/08 05:16:31;;;;;;;2.40;1.50;;;11.70;99.90;;;;;;4398471;32;20078;-68
2021/10/08 05:18:56;;;;;;;1.00;1.00;;;11.60;99.90;;;;;;4390488;32;20054;-70
2021/10/08 05:21:22;;;;;;;2.33;1.05;;;11.60;99.90;;;;;;4401216;32;20105;-69
2021/10/08 05:23:48;;;;;;;6.82;1.62;;;11.40;99.90;;;;;;4403845;32;20061;-70
2021/10/08 05:26:15;;;;;;;23.67;2.62;;;11.40;99.90;;;;;;4387895;32;20093;-66
2021/10/08 05:28:41;;;;;;;1.95;1.48;;;11.40;99.90;;;;;;4392165;32;20142;-66
2021/10/08 05:31:06;;;;;;;1.12;1.08;;;11.50;99.90;;;;;;4383027;32;20165;-65
2021/10/08 05:33:32;;;;;;;1.17;1.08;;;11.50;99.90;;;;;;4389071;32;20090;-67
2021/10/08 05:35:59;;;;;;;2.25;1.55;;;11.50;99.90;;;;;;4398600;32;20414;-66
2021/10/08 05:38:25;;;;;;;4.40;1.95;;;11.40;99.90;;;;;;4395722;32;20090;-66
2021/10/08 05:40:54;;;;;;;2.90;1.45;;;11.50;99.90;;;;;;4401832;32;20105;-67
2021/10/08 05:43:20;;;;;;;5.62;2.87;;;11.50;99.90;;;;;;4398670;32;20078;-69
2021/10/08 05:45:46;;;;;;;8.20;1.15;;;11.40;99.90;;;;;;4398239;32;20105;-68
2021/10/08 05:48:11;;;;;;;3.87;1.60;;;11.40;99.90;;;;;;4398294;32;20109;-70
2021/10/08 05:50:37;;;;;;;2.97;1.95;;;11.50;99.90;;;;;;4399870;32;20420;-68
2021/10/08 05:53:03;;;;;;;6.40;1.73;;;11.40;99.90;;;;;;4398416;32;20129;-69
2021/10/08 05:55:30;;;;;;;3.72;1.52;;;11.40;99.90;;;;;;4402108;32;20078;-68
2021/10/08 05:57:56;;;;;;;1.50;1.37;;;11.50;99.90;;;;;;4400517;32;20388;-70
2021/10/08 06:00:22;;;;;;;5.95;2.12;;;11.40;99.90;;;;;;4395638;32;20109;-69
2021/10/08 06:02:48;;;;;;;12.15;1.92;;;11.50;99.90;;;;;;4392786;32;20181;-69
2021/10/08 06:05:19;;;;;;;2.55;1.48;;;11.50;99.90;;;;;;4398093;32;20553;-70
2021/10/08 06:07:45;;;;;;;12.88;2.80;;;11.50;99.90;;;;;;4398879;32;20101;-68
2021/10/08 06:10:11;;;;;;;4.68;2.00;;;11.50;99.90;;;;;;4397611;32;20142;-68
2021/10/08 06:12:37;;;;;;;2.17;1.05;;;11.50;99.90;;;;;;4401071;32;20160;-68
2021/10/08 06:15:03;;;;;;;1.45;1.10;;;11.50;99.90;;;;;;4397239;32;20506;-75
2021/10/08 06:17:29;;;;;;;2.28;1.33;;;11.50;99.90;;;;;;4398976;32;20105;-69
2021/10/08 06:19:55;;;;;;;4.43;2.00;;;11.50;99.90;;;;;;4399060;32;20078;-68
2021/10/08 06:22:20;;;;;;;4.82;2.05;;;11.50;99.90;;;;;;4396566;32;20086;-68
2021/10/08 06:24:49;;;;;;;3.70;1.33;;;11.50;99.90;;;;;;4394780;32;98812;-69
2021/10/08 06:27:15;;;;;;;9.35;1.48;;;11.60;99.90;;;;;;4397334;32;20113;-69
2021/10/08 06:29:43;;;;;;;2.00;1.27;;;11.60;99.90;;;;;;4395094;32;20074;-70
2021/10/08 06:32:09;;;;;;;1.48;1.37;;;11.70;99.90;;;;;;4398848;32;20137;-70
2021/10/08 06:34:42;;;;;;;0.90;0.90;;;11.70;99.90;;;;;;4398275;32;20078;-70
2021/10/08 06:37:24;;;;;;;3.90;1.30;;;11.70;99.90;;;;;;4397648;32;20586;-71
2021/10/08 06:39:53;;;;;;;4.68;2.08;;;11.70;99.90;;;;;;4397681;32;20058;-71
2021/10/08 06:42:51;;;;;;;1.20;1.12;;;11.80;99.90;;;;;;4401911;32;20073;-72
2021/10/08 06:45:14;;;;;;;2.60;1.52;;;11.80;99.90;;;;;;4399253;32;20085;-73
2021/10/08 06:47:43;;;;;;;3.78;1.37;;;11.90;99.90;;;;;;4398238;32;20086;-71
2021/10/08 06:50:28;;;;;;;2.28;1.73;;;11.90;99.90;;;;;;4397383;32;20106;-71
2021/10/08 06:53:30;;;;;;;;;;;;;;;;;;;;;
2021/10/08 06:56:14;;;;;;;2.28;1.60;;;11.90;99.90;;;;;;4376419;32;20344;-73
2021/10/08 06:59:03;;;;;;;2.33;1.55;;;11.90;99.90;;;;;;4396879;32;20121;-73
2021/10/08 07:01:35;;;;;;;5.22;2.83;;;12.00;99.90;;;;;;4395914;32;20081;-72
2021/10/08 07:04:35;;;;;;;;;;;;;;;;;;;;;
2021/10/08 07:07:39;;;;;;;10.17;1.50;;;12.10;99.90;;;;;;4394563;32;20604;-71
2021/10/08 07:11:04;;;;;;;0.77;0.75;;;12.10;99.90;;;;;;4389847;32;20160;-72
2021/10/08 07:13:45;;;;;;;2.12;1.08;;;12.20;99.90;;;;;;4395222;32;20061;-72
2021/10/08 07:16:54;;;;;;;2.35;1.17;;;12.10;99.90;;;;;;4399360;32;20236;-74
2021/10/08 07:19:51;;;;;;;5.10;1.85;;;12.20;99.90;;;;;;4396362;32;20061;-72
2021/10/08 07:22:19;;;;;;;8.27;1.90;;;12.20;99.90;;;;;;4397380;32;20104;-72
2021/10/08 07:25:11;;;;;;;4.55;1.73;;;12.20;99.90;;;;;;4395888;32;20109;-71
2021/10/08 07:27:50;;;;;;;10.60;2.25;;;12.30;99.90;;;;;;4393308;32;20322;-71
2021/10/08 07:33:51;;;;;;;2.12;1.15;;;12.40;99.90;;;;;;4364393;32;20095;-70
2021/10/08 07:36:27;;;;;;;;;;;;;;;;;;;;;
2021/10/08 07:39:11;;;;;;;2.83;1.67;;;12.60;99.90;;;;;;4396068;32;20096;-70
2021/10/08 07:41:52;;;;;;;;;;;;;;;;;;;;;
2021/10/08 07:44:25;;;;;;;13.60;1.95;;;12.70;99.90;;;;;;4398979;32;20082;-67
2021/10/08 07:47:01;;;;;;;2.15;1.52;;;12.80;99.90;;;;;;4391570;32;20435;-70
2021/10/08 07:49:29;;;;;;;3.12;2.40;;;12.90;99.90;;;;;;4395665;32;20174;-70
2021/10/08 07:52:40;;;;;;;2.20;1.10;;;13.00;99.90;;;;;;4396551;32;20717;-70
2021/10/08 07:55:16;;;;;;;11.27;1.58;;;13.10;99.90;;;;;;4367246;32;20128;-71
2021/10/08 07:58:02;;;;;;;2.28;1.08;;;13.20;99.90;;;;;;4395640;32;20086;-73
2021/10/08 08:00:50;;;;;;;;;;;;;;;;;;;;;
2021/10/08 08:03:23;;;;;;;1.05;1.02;;;13.20;99.90;;;;;;4395057;32;20212;-71
2021/10/08 08:06:11;;;;;;;4.43;1.98;;;13.30;99.90;;;;;;4394647;32;20133;-72
2021/10/08 08:09:30;;;;;;;6.82;1.98;;;13.30;99.90;;;;;;4396766;32;20118;-72
2021/10/08 08:12:21;;;;;;;3.70;1.75;;;13.40;99.90;;;;;;4393932;32;20074;-75
2021/10/08 08:15:12;;;;;;;3.80;1.37;;;13.50;99.90;;;;;;4390241;32;20334;-72
2021/10/08 08:18:21;;;;;;;1.33;1.23;;;13.50;99.90;;;;;;4398526;32;20405;-72
2021/10/08 08:21:06;;;;;;;1.30;0.98;;;13.60;99.90;;;;;;4396537;32;20070;-72
2021/10/08 08:23:35;;;;;;;0.98;0.82;;;13.60;99.90;;;;;;4398298;32;20137;-72
2021/10/08 08:26:12;;;;;;;1.98;1.05;;;13.60;99.90;;;;;;4393498;32;20151;-72
2021/10/08 08:28:56;;;;;;;1.20;1.15;;;13.60;99.90;;;;;;4397786;32;20149;-72
2021/10/08 08:31:46;;;;;;;4.35;1.70;;;13.60;99.90;;;;;;4396222;32;20082;-71
2021/10/08 08:34:22;;;;;;;4.07;2.65;;;13.70;99.90;;;;;;4395661;32;20094;-72
2021/10/08 08:37:13;;;;;;;6.28;1.87;;;13.90;99.90;;;;;;4394897;32;20530;-71
2021/10/08 08:39:53;;;;;;;4.30;1.52;;;13.80;99.90;;;;;;4396151;32;20156;-72
2021/10/08 08:42:46;;;;;;;1.50;1.17;;;13.90;99.90;;;;;;4394491;32;20101;-71
2021/10/08 08:45:27;;;;;;;2.20;1.45;;;13.80;99.90;;;;;;4366838;32;20078;-71
2021/10/08 08:51:33;;;;;;;1.48;1.37;;;13.90;99.90;;;;;;4383516;32;20195;-70
2021/10/08 08:54:23;;;;;;;2.40;1.40;;;14.00;99.90;;;;;;4397153;32;20074;-73
2021/10/08 08:57:24;;;;;;;1.52;1.37;;;14.00;99.90;;;;;;4386785;32;20094;-71
2021/10/08 09:00:04;;;;;;;;;;;14.10;99.90;;;;;;4390652;32;20074;-71
2021/10/08 09:03:00;;;;;;;3.60;1.67;;;14.20;99.90;;;;;;4398300;32;20018;-72
2021/10/08 09:05:31;;;;;;;1.90;1.10;;;14.30;99.90;;;;;;4396698;32;20094;-71
2021/10/08 09:08:18;;;;;;;;;;;;;;;;;;;;;
2021/10/08 09:11:11;;;;;;;2.17;1.33;;;14.50;99.90;;;;;;4395824;32;20752;-75
2021/10/08 09:14:15;;;;;;;1.98;1.10;;;14.60;99.90;;;;;;4398277;32;20069;-71
2021/10/08 09:17:34;;;;;;;;;;;;;;;;;;;;;
2021/10/08 09:20:19;;;;;;;2.00;1.08;;;14.90;99.90;;;;;;4389980;32;20559;-71
2021/10/08 09:22:55;;;;;;;1.45;1.08;;;15.00;99.90;;;;;;4394018;32;21417;-71
2021/10/08 09:25:57;;;;;;;2.95;1.00;;;15.00;99.90;;;;;;4395588;32;20571;-71
2021/10/08 09:28:49;;;;;;;1.05;0.80;;;15.00;99.90;;;;;;4389377;32;20627;-70
2021/10/08 09:31:59;;;;;;;8.23;1.50;;;15.00;99.90;;;;;;4392245;32;20186;-70
2021/10/08 09:34:32;;;;;;;2.37;1.00;;;15.20;99.90;;;;;;4387805;32;20165;-70
2021/10/08 09:37:12;;;;;;;0.80;0.80;;;15.30;99.90;;;;;;4393760;32;20094;-70
2021/10/08 09:39:38;;;;;;;1.20;1.07;;;15.30;99.90;;;;;;4393300;32;20266;-70
2021/10/08 09:42:08;;;;;;;1.10;1.00;;;15.50;99.90;;;;;;4399240;32;20591;-71
2021/10/08 09:44:37;;;;;;;2.83;1.80;;;15.50;99.90;;;;;;4398927;32;20070;-71
2021/10/08 09:47:13;;;;;;;8.23;1.98;;;15.50;99.90;;;;;;4397404;32;20515;-70
2021/10/08 09:49:39;;;;;;;18.52;1.23;;;15.60;99.90;;;;;;4395136;32;20062;-70
2021/10/08 09:52:27;;;;;;;0.75;0.75;;;15.50;99.90;;;;;;4399355;32;20062;-70
2021/10/08 09:54:57;;;;;;;2.67;1.58;;;15.60;99.90;;;;;;4395130;32;20662;-70
2021/10/08 09:57:24;;;;;;;1.23;1.12;;;15.60;99.90;;;;;;4398260;32;20535;-69
2021/10/08 09:59:52;;;;;;;1.08;0.57;;;15.80;99.90;;;;;;4396143;32;20081;-70
2021/10/08 10:02:18;;;;;;;3.35;1.17;;;15.90;99.90;;;;;;4396741;32;20375;-70
2021/10/08 10:04:46;;;;;;;0.80;0.77;;;15.90;99.90;;;;;;4399063;32;20074;-70
2021/10/08 10:07:14;;;;;;;0.50;0.50;;;16.00;99.90;;;;;;4399536;32;20073;-70
2021/10/08 10:09:41;;;;;;;1.75;1.52;;;16.00;99.90;;;;;;4395483;32;20090;-69
2021/10/08 10:12:07;;;;;;;0.70;0.70;;;16.10;99.90;;;;;;4396382;32;20140;-70
2021/10/08 10:14:34;;;;;;;1.77;1.33;;;16.10;99.90;;;;;;4395684;32;20085;-71
2021/10/08 10:17:02;;;;;;;11.43;1.60;;;16.20;99.90;;;;;;4391184;32;20387;-70
2021/10/08 10:19:29;;;;;;;1.12;1.02;;;16.20;99.90;;;;;;4394364;32;20315;-70
2021/10/08 10:21:55;;;;;;;3.50;2.08;;;16.20;99.90;;;;;;4392229;32;20188;-69
2021/10/08 10:24:22;;;;;;;6.35;2.62;;;16.20;99.90;;;;;;4390137;32;20389;-69
2021/10/08 10:26:48;;;;;;;1.12;1.02;;;16.20;99.90;;;;;;4392676;32;20110;-70
2021/10/08 10:29:14;;;;;;;4.12;1.70;;;16.20;99.90;;;;;;4395360;32;20873;-70
2021/10/08 10:31:41;;;;;;;2.22;1.33;;;16.20;99.90;;;;;;4397219;32;20114;-71
2021/10/08 10:34:07;;;;;;;1.05;0.98;;;16.30;99.90;;;;;;4396878;32;20114;-71
2021/10/08 10:36:40;;;;;;;1.27;0.77;;;16.30;99.90;;;;;;4399762;32;20169;-71
2021/10/08 10:39:16;;;;;;;2.05;1.48;;;16.40;99.90;;;;;;4397819;32;20597;-71
2021/10/08 10:41:44;;;;;;;0.95;0.70;;;16.60;99.90;;;;;;4398118;32;20074;-72
2021/10/08 10:44:14;;;;;;;1.10;0.88;;;16.50;99.90;;;;;;4392306;32;20098;-71
2021/10/08 10:47:00;;;;;;;0.85;0.80;;;16.50;99.90;;;;;;4392720;32;20705;-71
2021/10/08 10:49:38;;;;;;;1.37;0.68;;;16.60;99.90;;;;;;4390469;32;20093;-71
2021/10/08 10:52:09;;;;;;;3.25;1.00;;;16.60;99.90;;;;;;4388893;32;20073;-70
2021/10/08 10:55:02;;;;;;;;;;;16.60;99.90;;;;;;4388281;32;20113;-71
2021/10/08 11:01:38;;;;;;;;;;;;;;;;;;;;;
2021/10/08 11:04:27;;;;;;;;;;;16.50;99.90;;;;;;4377245;32;20149;-68
2021/10/08 11:07:12;;;;;;;1.02;0.90;;;16.60;99.90;;;;;;4391917;32;21561;-70
2021/10/08 11:10:45;;;;;;;;;;;;;;;;;;;;;
2021/10/08 11:13:55;;;;;;;;;;;;;;;;;;;;;
2021/10/08 11:16:44;;;;;;;2.75;0.80;;;17.10;99.90;;;;;;4387326;32;20534;-70
2021/10/08 11:19:58;;;;;;;4.47;1.95;;;17.20;99.90;;;;;;4391483;32;20873;-69
2021/10/08 11:22:55;;;;;;;0.57;0.57;;;17.30;99.90;;;;;;4388895;32;20089;-70
2021/10/08 11:25:33;;;;;;;1.17;0.95;;;17.30;99.90;;;;;;4392939;32;20535;-68
2021/10/08 11:28:33;;;;;;;0.60;0.57;;;17.40;99.90;;;;;;4391790;32;20439;-69
2021/10/08 11:31:19;;;;;;;0.80;0.80;;;17.50;99.90;;;;;;4375476;32;20457;-69
2021/10/08 11:33:47;;;;;;;1.12;1.00;;;17.70;99.90;;;;;;4391300;32;20618;-70
2021/10/08 11:36:38;;;;;;;1.15;1.02;;;17.90;99.90;;;;;;4392621;32;21280;-70
2021/10/08 11:39:31;;;;;;;0.82;0.82;;;17.90;99.90;;;;;;4391350;32;22218;-69
2021/10/08 11:42:39;;;;;;;2.53;1.27;;;18.00;99.90;;;;;;4390707;32;20082;-69
2021/10/08 11:45:28;;;;;;;0.73;0.47;;;18.30;99.90;;;;;;4386370;32;20152;-69
2021/10/08 11:48:42;;;;;;;1.55;1.42;;;18.30;99.90;;;;;;4389827;32;20617;-68
2021/10/08 11:51:36;;;;;;;0.57;0.55;;;18.90;99.90;;;;;;4356611;32;20102;-72
2021/10/08 11:54:29;;;;;;;3.15;1.62;;;19.30;99.10;;;;;;4389454;32;20074;-69
2021/10/08 11:57:25;;;;;;;6.75;1.08;;;19.80;99.00;;;;;;4390906;32;20098;-68
2021/10/08 12:00:18;;;;;;;0.95;0.90;;;20.00;98.70;;;;;;4390428;32;20093;-70
2021/10/08 12:03:04;;;;;;;0.77;0.77;;;20.20;98.50;;;;;;4393463;32;20138;-70
2021/10/08 12:05:56;;;;;;;14.52;0.73;;;20.80;98.10;;;;;;4391256;32;20078;-72
2021/10/08 12:08:41;;;;;;;2.67;1.17;;;20.90;96.40;;;;;;4391283;32;20085;-71
2021/10/08 12:11:22;;;;;;;0.65;0.60;;;20.90;96.50;;;;;;4385014;32;20305;-70
2021/10/08 12:14:09;;;;;;;1.95;0.95;;;21.20;96.30;;;;;;4383979;32;20073;-71
2021/10/08 12:16:52;;;;;;;0.28;0.28;;;21.50;96.10;;;;;;4392794;32;20114;-71
2021/10/08 12:19:32;;;;;;;4.85;1.20;;;21.50;95.50;;;;;;4394898;32;20070;-70
2021/10/08 12:22:01;;;;;;;1.75;1.10;;;21.50;95.30;;;;;;4394916;32;20148;-71
2021/10/08 12:24:41;;;;;;;0.20;0.20;;;21.90;94.50;;;;;;4395776;32;21340;-70
2021/10/08 12:27:27;;;;;;;3.37;1.60;;;21.70;93.70;;;;;;4393064;32;20106;-70
2021/10/08 12:30:15;;;;;;;0.60;0.55;;;21.90;94.20;;;;;;4393890;32;20101;-70
2021/10/08 12:32:42;;;;;;;3.83;1.75;;;21.90;93.50;;;;;;4393825;32;20654;-70
2021/10/08 12:35:14;;;;;;;1.98;1.33;;;22.00;94.10;;;;;;4396123;32;20082;-70
2021/10/08 12:37:52;;;;;;;0.22;0.22;;;22.20;93.80;;;;;;4395953;32;20069;-70
2021/10/08 12:40:23;;;;;;;4.90;0.55;;;22.20;93.10;;;;;;4398988;32;20097;-69
2021/10/08 12:43:29;;;;;;;0.68;0.65;;;22.30;92.90;;;;;;4393140;32;20556;-70
2021/10/08 12:46:10;;;;;;;1.15;0.90;;;22.20;92.70;;;;;;4397701;32;20695;-70
2021/10/08 12:49:07;;;;;;;5.50;2.60;;;21.80;92.90;;;;;;4396278;32;21109;-70
2021/10/08 12:52:10;;;;;;;1.75;0.50;;;21.20;93.90;;;;;;4395561;32;20110;-73
2021/10/08 12:55:04;;;;;;;0.80;0.75;;;20.70;93.80;;;;;;4404347;32;20081;-70
2021/10/08 12:58:07;;;;;;;3.60;1.30;;;20.20;94.00;;;;;;4395146;32;20065;-70
2021/10/08 13:01:01;;;;;;;1.30;0.90;;;19.90;95.50;;;;;;4395374;32;20093;-70
2021/10/08 13:03:42;;;;;;;4.60;2.25;;;19.50;95.20;;;;;;4398341;32;20101;-70
2021/10/08 13:06:09;;;;;;;;;;;19.20;95.80;;;;;;4397238;32;20105;-70
2021/10/08 13:09:19;;;;;;;4.53;1.62;;;19.10;95.90;;;;;;4395553;32;19964;-70
2021/10/08 13:12:15;;;;;;;1.62;1.10;;;19.00;96.60;;;;;;4395110;32;20093;-70
2021/10/08 13:14:57;;;;;;;3.53;1.80;;;18.90;97.00;;;;;;4395425;32;20118;-70
2021/10/08 13:17:31;;;;;;;2.42;1.27;;;18.60;97.10;;;;;;4399515;32;20155;-70
2021/10/08 13:20:03;;;;;;;2.72;0.98;;;18.70;97.50;;;;;;4403838;32;20067;-70
2021/10/08 13:22:41;;;;;;;0.80;0.80;;;18.60;97.60;;;;;;4400100;32;20089;-70
2021/10/08 13:25:42;;;;;;;2.55;0.77;;;18.50;96.30;;;;;;4407619;32;20069;-70
2021/10/08 13:28:40;;;;;;;0.77;0.77;;;18.40;96.60;;;;;;4393684;32;20098;-69
2021/10/08 13:31:29;;;;;;;1.65;1.25;;;18.50;96.70;;;;;;4397653;32;20523;-69
2021/10/08 13:37:28;;;;;;;3.05;1.35;;;18.40;96.40;;;;;;4400637;32;20079;-69
2021/10/08 13:40:02;;;;;;;0.47;0.47;;;18.40;97.00;;;;;;4404019;32;20069;-70
2021/10/08 13:42:55;;;;;;;2.37;1.20;;;18.40;98.00;;;;;;4401266;32;20059;-69
2021/10/08 13:45:40;;;;;;;1.70;1.33;;;18.40;96.70;;;;;;4402509;32;20093;-69
2021/10/08 13:48:08;;;;;;;0.57;0.57;;;18.40;96.50;;;;;;4402707;32;20067;-69
2021/10/08 13:50:45;;;;;;;0.90;0.75;;;18.30;96.20;;;;;;4400239;32;20085;-69
2021/10/08 13:53:35;;;;;;;1.00;0.88;;;18.10;96.40;;;;;;4401090;32;21799;-69
2021/10/08 13:56:15;;;;;;;0.93;0.90;;;18.00;96.60;;;;;;4401005;32;20086;-69
2021/10/08 13:58:41;;;;;;;3.40;1.85;;;18.00;97.20;;;;;;4403119;32;20087;-69
2021/10/08 14:01:15;;;;;;;1.42;1.23;;;17.90;97.80;;;;;;4403354;32;20074;-69